Time;durP1;ratioP1;P1;durP2;ratioP2;P2;SDS_P1;SDS_P2;PMS_P1;PMS_P2;Temp;Humidity;BMP_temperature;BMP_pressure;BME280_temperature;BME280_humidity;BME280_pressure;Samples;Min_cycle;Max_cycle;Signal;HPM_P1;HPM_P2
2023/08/22 00:00:30;;;;;;;7.50;3.93;;;18.50;99.90;;;;;;5157220;27;20545;-76
2023/08/22 00:02:58;;;;;;;8.33;3.90;;;18.50;99.90;;;;;;5121772;27;20046;-77
2023/08/22 00:05:24;;;;;;;8.07;4.13;;;18.50;99.90;;;;;;5139167;27;20050;-76
2023/08/22 00:07:50;;;;;;;10.50;4.77;;;18.50;99.90;;;;;;5138936;27;20046;-76
2023/08/22 00:10:16;;;;;;;8.80;4.67;;;18.50;99.90;;;;;;5157089;27;20390;-76
2023/08/22 00:12:43;;;;;;;9.43;4.10;;;18.50;99.90;;;;;;5139078;27;20061;-76
2023/08/22 00:15:10;;;;;;;10.80;4.10;;;18.50;99.90;;;;;;5157044;27;20336;-76
2023/08/22 00:17:42;;;;;;;10.13;5.03;;;18.50;99.90;;;;;;5139182;27;20050;-76
2023/08/22 00:20:11;;;;;;;6.80;4.40;;;18.50;99.90;;;;;;5138489;27;20093;-76
2023/08/22 00:22:37;;;;;;;8.67;3.60;;;18.50;99.90;;;;;;5138496;27;20042;-76
2023/08/22 00:25:07;;;;;;;10.97;4.73;;;18.50;99.90;;;;;;5138362;27;20042;-76
2023/08/22 00:27:34;;;;;;;6.13;3.93;;;18.50;99.90;;;;;;5157104;27;20051;-76
2023/08/22 00:30:00;;;;;;;5.50;3.63;;;18.60;99.90;;;;;;5156831;27;20156;-77
2023/08/22 00:32:25;;;;;;;9.10;4.83;;;18.50;99.90;;;;;;5138457;27;20114;-77
2023/08/22 00:34:51;;;;;;;7.53;4.13;;;18.50;99.90;;;;;;5138667;27;20043;-76
2023/08/22 00:37:18;;;;;;;7.97;4.57;;;18.50;99.90;;;;;;5156577;27;20130;-76
2023/08/22 00:39:45;;;;;;;8.43;4.23;;;18.50;99.90;;;;;;5156690;27;20043;-76
2023/08/22 00:42:10;;;;;;;7.07;4.60;;;18.40;99.90;;;;;;5137858;27;20034;-77
2023/08/22 00:44:36;;;;;;;9.27;4.37;;;18.30;99.90;;;;;;5156321;27;20049;-76
2023/08/22 00:47:03;;;;;;;9.50;5.17;;;18.30;99.90;;;;;;5137830;27;20125;-76
2023/08/22 00:49:29;;;;;;;7.83;4.77;;;18.30;99.90;;;;;;5138220;27;20054;-77
2023/08/22 00:51:58;;;;;;;9.37;4.07;;;18.20;99.90;;;;;;5156278;27;20042;-77
2023/08/22 00:54:26;;;;;;;7.90;4.23;;;18.20;99.90;;;;;;5155900;27;20059;-76
2023/08/22 00:56:53;;;;;;;9.87;4.70;;;18.20;99.90;;;;;;5138294;27;20047;-76
2023/08/22 00:59:19;;;;;;;8.93;4.50;;;18.20;99.90;;;;;;5137597;27;20858;-76
2023/08/22 01:01:46;;;;;;;8.23;4.33;;;18.20;99.90;;;;;;5155897;27;20462;-77
2023/08/22 01:04:12;;;;;;;8.40;4.40;;;18.20;99.90;;;;;;5137672;27;20081;-76
2023/08/22 01:06:47;;;;;;;9.23;4.40;;;18.20;99.90;;;;;;5137967;27;20039;-77
2023/08/22 01:09:22;;;;;;;;;;;18.20;99.90;;;;;;5156284;27;20049;-76
2023/08/22 01:11:51;;;;;;;7.68;4.20;;;18.20;99.90;;;;;;5156131;27;19919;-76
2023/08/22 01:14:20;;;;;;;7.50;4.07;;;18.20;99.90;;;;;;5155774;27;20046;-77
2023/08/22 01:16:48;;;;;;;6.93;3.93;;;18.20;99.90;;;;;;5156084;27;20126;-77
2023/08/22 01:19:17;;;;;;;7.90;4.20;;;18.20;99.90;;;;;;5137544;27;20039;-76
2023/08/22 01:21:52;;;;;;;7.93;4.57;;;18.20;99.90;;;;;;5137732;27;20074;-77
2023/08/22 01:24:19;;;;;;;9.93;4.57;;;18.20;99.90;;;;;;5120370;27;20073;-77
2023/08/22 01:26:46;;;;;;;9.83;4.07;;;18.20;99.90;;;;;;5137564;27;20121;-76
2023/08/22 01:29:36;;;;;;;11.63;4.40;;;18.20;99.90;;;;;;5137240;27;20406;-77
2023/08/22 01:32:31;;;;;;;12.93;5.20;;;18.20;99.90;;;;;;5136336;27;20141;-76
2023/08/22 01:35:02;;;;;;;11.77;4.18;;;18.20;99.90;;;;;;5136415;27;20079;-76
2023/08/22 01:37:31;;;;;;;9.10;4.47;;;18.20;99.90;;;;;;5154889;27;20129;-76
2023/08/22 01:40:01;;;;;;;7.37;4.40;;;18.20;99.90;;;;;;5155571;27;20494;-76
2023/08/22 01:42:30;;;;;;;9.27;4.83;;;18.20;99.90;;;;;;5155708;27;20167;-77
2023/08/22 01:44:56;;;;;;;8.17;5.13;;;18.20;99.90;;;;;;5136711;27;20129;-76
2023/08/22 01:47:21;;;;;;;9.83;5.03;;;18.20;99.90;;;;;;5155144;27;20049;-77
2023/08/22 01:49:47;;;;;;;7.60;4.00;;;18.20;99.90;;;;;;5155806;27;20591;-76
2023/08/22 01:52:13;;;;;;;10.50;4.20;;;18.10;99.90;;;;;;5155001;27;20143;-76
2023/08/22 01:54:38;;;;;;;10.77;4.23;;;18.10;99.90;;;;;;5133130;27;20491;-76
2023/08/22 01:57:04;;;;;;;8.37;4.73;;;18.00;99.90;;;;;;5134493;27;20047;-76
2023/08/22 01:59:30;;;;;;;10.07;4.80;;;18.00;99.90;;;;;;5133226;27;20141;-76
2023/08/22 02:01:56;;;;;;;8.33;4.80;;;18.00;99.90;;;;;;5134062;27;20101;-77
2023/08/22 02:04:21;;;;;;;10.37;4.73;;;17.90;99.90;;;;;;5132916;27;20149;-77
2023/08/22 02:06:47;;;;;;;8.83;4.60;;;17.90;99.90;;;;;;5134383;27;20042;-77
2023/08/22 02:09:13;;;;;;;6.80;4.13;;;17.90;99.90;;;;;;5134356;27;20167;-77
2023/08/22 02:11:39;;;;;;;7.73;4.50;;;17.80;99.90;;;;;;5134329;27;20039;-76
2023/08/22 02:14:05;;;;;;;8.70;4.53;;;17.70;99.90;;;;;;5134232;27;20126;-76
2023/08/22 02:16:30;;;;;;;7.43;3.97;;;17.70;99.90;;;;;;5133677;27;20093;-76
2023/08/22 02:18:56;;;;;;;7.17;4.13;;;17.70;99.90;;;;;;5134239;27;20047;-77
2023/08/22 02:21:22;;;;;;;8.87;4.47;;;17.60;99.90;;;;;;5133818;27;20050;-77
2023/08/22 02:23:48;;;;;;;7.10;4.07;;;17.70;99.90;;;;;;5134084;27;20122;-76
2023/08/22 02:26:14;;;;;;;8.63;4.40;;;17.60;99.90;;;;;;5133807;27;20055;-77
2023/08/22 02:28:39;;;;;;;8.03;4.63;;;17.60;99.90;;;;;;5099113;28;20066;-76
2023/08/22 02:31:05;;;;;;;10.17;4.80;;;17.60;99.90;;;;;;5134067;27;20043;-76
2023/08/22 02:33:34;;;;;;;9.00;4.77;;;17.50;99.90;;;;;;5133797;27;20039;-76
2023/08/22 02:36:00;;;;;;;7.30;4.50;;;17.50;99.90;;;;;;5134132;27;20050;-77
2023/08/22 02:38:26;;;;;;;8.70;5.00;;;17.50;99.90;;;;;;5132799;28;20047;-76
2023/08/22 02:40:52;;;;;;;8.70;4.87;;;17.40;99.90;;;;;;5132837;28;20094;-76
2023/08/22 02:43:18;;;;;;;8.57;4.47;;;17.40;99.90;;;;;;5132374;28;20075;-77
2023/08/22 02:45:46;;;;;;;9.60;4.83;;;17.30;99.90;;;;;;5134134;27;20054;-76
2023/08/22 02:48:12;;;;;;;7.97;4.50;;;17.40;99.90;;;;;;5115538;27;20093;-77
2023/08/22 02:50:38;;;;;;;10.10;5.63;;;17.30;99.90;;;;;;5136020;27;20074;-76
2023/08/22 02:53:04;;;;;;;10.27;5.40;;;17.30;99.90;;;;;;5120135;27;20498;-76
2023/08/22 02:55:31;;;;;;;9.87;5.73;;;17.30;99.90;;;;;;5102338;27;20142;-76
2023/08/22 02:57:57;;;;;;;8.17;5.10;;;17.30;99.90;;;;;;5138295;27;20142;-76
2023/08/22 03:00:23;;;;;;;10.37;5.77;;;17.20;99.90;;;;;;5137769;27;20406;-77
2023/08/22 03:02:49;;;;;;;12.50;5.13;;;17.20;99.90;;;;;;5102640;27;20043;-77
2023/08/22 03:05:14;;;;;;;8.53;5.60;;;17.20;99.90;;;;;;5136638;27;20055;-77
2023/08/22 03:07:40;;;;;;;10.30;5.47;;;17.20;99.90;;;;;;5136481;27;20043;-76
2023/08/22 03:10:08;;;;;;;10.77;5.57;;;17.20;99.90;;;;;;5137462;27;20564;-76
2023/08/22 03:12:34;;;;;;;8.40;5.43;;;17.20;99.90;;;;;;5136457;27;20121;-77
2023/08/22 03:15:01;;;;;;;8.27;5.30;;;17.20;99.90;;;;;;5136692;27;20555;-76
2023/08/22 03:17:27;;;;;;;9.47;5.73;;;17.20;99.90;;;;;;5136398;27;20100;-76
2023/08/22 03:19:53;;;;;;;7.73;5.50;;;17.10;99.90;;;;;;5119477;27;20043;-76
2023/08/22 03:22:18;;;;;;;9.57;5.80;;;17.10;99.90;;;;;;5136141;27;20058;-76
2023/08/22 03:24:44;;;;;;;12.77;6.30;;;17.10;99.90;;;;;;5137241;27;20043;-77
2023/08/22 03:27:10;;;;;;;8.23;5.53;;;17.10;99.90;;;;;;5137575;27;20081;-76
2023/08/22 03:29:35;;;;;;;9.27;5.77;;;17.00;99.90;;;;;;5135956;27;20982;-77
2023/08/22 03:32:01;;;;;;;10.27;6.40;;;17.00;99.90;;;;;;5137406;27;20043;-76
2023/08/22 03:34:27;;;;;;;10.43;5.70;;;16.90;99.90;;;;;;5137128;27;20471;-76
2023/08/22 03:36:52;;;;;;;11.50;6.20;;;16.90;99.90;;;;;;5137368;27;20051;-76
2023/08/22 03:39:18;;;;;;;9.03;6.13;;;16.90;99.90;;;;;;5136054;27;20157;-77
2023/08/22 03:41:44;;;;;;;10.23;5.70;;;16.80;99.90;;;;;;5136129;27;20502;-76
2023/08/22 03:44:09;;;;;;;8.40;5.83;;;16.80;99.90;;;;;;5137121;27;20051;-76
2023/08/22 03:46:35;;;;;;;11.73;5.77;;;16.80;99.90;;;;;;5136823;27;20126;-76
2023/08/22 03:49:01;;;;;;;14.17;6.63;;;16.80;99.90;;;;;;5137371;27;20131;-76
2023/08/22 03:51:26;;;;;;;10.40;5.60;;;16.80;99.90;;;;;;5136779;27;20039;-77
2023/08/22 03:53:53;;;;;;;10.80;5.97;;;16.80;99.90;;;;;;5136831;27;20441;-76
2023/08/22 03:56:18;;;;;;;12.50;6.33;;;16.80;99.90;;;;;;5157627;27;20058;-77
2023/08/22 03:58:44;;;;;;;8.90;6.23;;;16.80;99.90;;;;;;5139015;27;20092;-76
2023/08/22 04:01:10;;;;;;;8.63;6.17;;;16.80;99.90;;;;;;5156894;27;20054;-76
2023/08/22 04:03:36;;;;;;;10.30;6.73;;;16.70;99.90;;;;;;5138408;27;20042;-77
2023/08/22 04:06:03;;;;;;;11.07;6.43;;;16.70;99.90;;;;;;5157478;27;20049;-76
2023/08/22 04:08:29;;;;;;;9.13;6.30;;;16.70;99.90;;;;;;5157107;27;20054;-76
2023/08/22 04:10:56;;;;;;;17.17;6.90;;;16.70;99.90;;;;;;5157311;27;20042;-76
2023/08/22 04:13:22;;;;;;;9.27;6.10;;;16.70;99.90;;;;;;5157028;27;20042;-77
2023/08/22 04:15:48;;;;;;;8.30;6.43;;;16.70;99.90;;;;;;5138707;27;20073;-77
2023/08/22 04:18:14;;;;;;;11.07;6.40;;;16.60;99.90;;;;;;5105012;27;20475;-76
2023/08/22 04:20:42;;;;;;;9.60;6.07;;;16.60;99.90;;;;;;5138147;27;20482;-76
2023/08/22 04:23:09;;;;;;;10.13;6.33;;;16.60;99.90;;;;;;5156997;27;20049;-76
2023/08/22 04:25:35;;;;;;;9.70;6.20;;;16.60;99.90;;;;;;5156806;27;20091;-76
2023/08/22 04:28:00;;;;;;;9.17;6.07;;;16.60;99.90;;;;;;5157034;27;20497;-77
2023/08/22 04:30:26;;;;;;;9.53;6.23;;;16.60;99.90;;;;;;5156686;27;20498;-77
2023/08/22 04:32:52;;;;;;;10.67;6.20;;;16.60;99.90;;;;;;5138823;27;20358;-76
2023/08/22 04:35:18;;;;;;;8.77;6.10;;;16.50;99.90;;;;;;5156856;27;20046;-76
2023/08/22 04:37:44;;;;;;;10.07;6.37;;;16.50;99.90;;;;;;5138284;27;20050;-76
2023/08/22 04:40:10;;;;;;;11.33;6.73;;;16.50;99.90;;;;;;5138352;27;20146;-76
2023/08/22 04:42:36;;;;;;;9.90;7.17;;;16.50;99.90;;;;;;5156339;27;20034;-76
2023/08/22 04:45:01;;;;;;;9.80;6.37;;;16.50;99.90;;;;;;5138430;27;20053;-76
2023/08/22 04:47:27;;;;;;;8.70;6.27;;;16.50;99.90;;;;;;5137983;27;20038;-76
2023/08/22 04:49:53;;;;;;;13.20;6.60;;;16.50;99.90;;;;;;5156315;27;20047;-76
2023/08/22 04:52:18;;;;;;;8.37;6.30;;;16.50;99.90;;;;;;5156582;27;20102;-76
2023/08/22 04:54:44;;;;;;;8.80;6.20;;;16.60;99.90;;;;;;5155901;27;20083;-77
2023/08/22 04:57:10;;;;;;;8.57;6.27;;;16.50;99.90;;;;;;5156445;27;20057;-77
2023/08/22 04:59:35;;;;;;;11.17;6.27;;;16.50;99.90;;;;;;5156084;27;20050;-76
2023/08/22 05:02:02;;;;;;;9.07;5.93;;;16.50;99.90;;;;;;5156460;27;20039;-77
2023/08/22 05:04:28;;;;;;;10.33;6.90;;;16.50;99.90;;;;;;5137732;27;20130;-77
2023/08/22 05:06:53;;;;;;;10.60;6.93;;;16.50;99.90;;;;;;5156181;27;20125;-76
2023/08/22 05:09:19;;;;;;;10.43;6.87;;;16.50;99.90;;;;;;5156202;27;20059;-76
2023/08/22 05:11:45;;;;;;;11.17;6.60;;;16.60;99.90;;;;;;5136750;27;20474;-77
2023/08/22 05:14:11;;;;;;;12.73;6.97;;;16.60;99.90;;;;;;5137685;27;20085;-77
2023/08/22 05:16:38;;;;;;;10.00;6.27;;;16.60;99.90;;;;;;5155803;27;20082;-77
2023/08/22 05:19:04;;;;;;;8.40;6.30;;;16.70;99.90;;;;;;5137795;27;20042;-77
2023/08/22 05:21:30;;;;;;;12.07;7.20;;;16.70;99.90;;;;;;5120354;27;20046;-77
2023/08/22 05:23:55;;;;;;;10.07;6.63;;;16.70;99.90;;;;;;5156150;27;20038;-77
2023/08/22 05:26:21;;;;;;;11.83;7.50;;;16.80;99.90;;;;;;5155994;27;20047;-77
2023/08/22 05:28:47;;;;;;;10.47;6.70;;;16.90;99.90;;;;;;5137022;27;20040;-77
2023/08/22 05:31:23;;;;;;;11.17;7.40;;;16.90;99.90;;;;;;5137573;27;20069;-77
2023/08/22 05:33:49;;;;;;;10.37;7.07;;;17.00;99.90;;;;;;5155406;27;20039;-77
2023/08/22 05:36:15;;;;;;;13.93;6.83;;;17.00;99.90;;;;;;5120308;27;20082;-76
2023/08/22 05:38:41;;;;;;;11.13;6.70;;;17.00;99.90;;;;;;5137103;27;20142;-76
2023/08/22 05:41:06;;;;;;;13.97;7.50;;;17.10;99.90;;;;;;5137363;27;20202;-76
2023/08/22 05:43:32;;;;;;;10.67;7.87;;;17.20;99.90;;;;;;5155484;27;20065;-77
2023/08/22 05:45:58;;;;;;;8.77;6.80;;;17.30;99.90;;;;;;5155402;27;20042;-77
2023/08/22 05:48:24;;;;;;;10.80;7.27;;;17.40;99.90;;;;;;5137160;27;20095;-76
2023/08/22 05:50:50;;;;;;;10.50;7.00;;;17.50;99.90;;;;;;5155453;27;20374;-77
2023/08/22 05:53:16;;;;;;;13.17;6.87;;;17.60;99.90;;;;;;5155499;27;20043;-77
2023/08/22 05:55:43;;;;;;;11.60;7.17;;;17.70;99.90;;;;;;5155059;27;20139;-76
2023/08/22 05:58:09;;;;;;;10.40;7.60;;;17.80;99.90;;;;;;5154885;27;20569;-77
2023/08/22 06:00:35;;;;;;;13.30;7.53;;;18.00;99.90;;;;;;5136448;27;20078;-78
2023/08/22 06:03:02;;;;;;;12.43;7.70;;;18.40;99.90;;;;;;5136979;27;20188;-77
2023/08/22 06:05:28;;;;;;;9.80;6.73;;;19.20;99.90;;;;;;5155168;27;20055;-77
2023/08/22 06:07:54;;;;;;;9.87;7.10;;;;;;;;;;5154460;27;20850;-77
2023/08/22 06:10:22;;;;;;;9.73;6.10;;;21.60;99.90;;;;;;5155056;27;20443;-77
2023/08/22 06:12:48;;;;;;;12.17;6.87;;;22.70;99.90;;;;;;5136357;27;20047;-77
2023/08/22 06:15:14;;;;;;;9.57;6.70;;;22.90;99.90;;;;;;5102369;27;20039;-77
2023/08/22 06:17:39;;;;;;;10.63;5.90;;;22.70;99.90;;;;;;5136361;27;20039;-77
2023/08/22 06:20:06;;;;;;;10.10;6.67;;;22.30;99.90;;;;;;5154516;27;20494;-77
2023/08/22 06:22:32;;;;;;;9.17;6.83;;;22.10;99.90;;;;;;5119341;27;20398;-77
2023/08/22 06:24:58;;;;;;;10.30;6.80;;;21.80;99.90;;;;;;5136147;27;20038;-77
2023/08/22 06:27:23;;;;;;;9.17;6.60;;;22.20;99.90;;;;;;5154778;27;20103;-77
2023/08/22 06:29:49;;;;;;;8.43;6.70;;;23.10;99.90;;;;;;5154848;27;20047;-77
2023/08/22 06:32:15;;;;;;;10.57;6.23;;;24.20;99.90;;;;;;5136180;27;20047;-77
2023/08/22 06:34:40;;;;;;;10.33;6.90;;;24.80;99.90;;;;;;5136135;27;20126;-78
2023/08/22 06:37:06;;;;;;;10.80;6.50;;;25.00;99.90;;;;;;5154387;27;20057;-77
2023/08/22 06:39:33;;;;;;;9.33;6.50;;;25.50;99.90;;;;;;5136641;27;20043;-77
2023/08/22 06:41:58;;;;;;;9.00;5.80;;;25.60;99.90;;;;;;5154324;27;20061;-78
2023/08/22 06:44:24;;;;;;;10.70;6.60;;;25.20;99.90;;;;;;5154803;27;20051;-77
2023/08/22 06:46:50;;;;;;;10.93;6.30;;;24.60;99.90;;;;;;5154362;27;20129;-77
2023/08/22 06:49:16;;;;;;;8.97;6.53;;;24.00;99.90;;;;;;5136354;27;20039;-75
2023/08/22 06:51:41;;;;;;;9.33;6.37;;;23.60;99.90;;;;;;5118902;27;20046;-77
2023/08/22 06:54:07;;;;;;;10.47;6.40;;;23.40;99.90;;;;;;5154488;27;20046;-76
2023/08/22 06:56:33;;;;;;;12.47;6.57;;;23.40;99.90;;;;;;5135806;27;20051;-76
2023/08/22 06:58:59;;;;;;;20.00;7.77;;;23.60;99.90;;;;;;5135960;27;20050;-76
2023/08/22 07:01:25;;;;;;;10.43;6.33;;;24.00;99.90;;;;;;5154422;27;20046;-76
2023/08/22 07:03:50;;;;;;;9.63;5.73;;;24.30;99.90;;;;;;5135994;27;20075;-81
2023/08/22 07:06:16;;;;;;;10.87;6.57;;;24.60;99.90;;;;;;5118748;27;20058;-82
2023/08/22 07:08:42;;;;;;;12.47;5.80;;;24.80;99.90;;;;;;5154195;27;20050;-82
2023/08/22 07:11:07;;;;;;;9.90;6.60;;;25.10;99.90;;;;;;5135742;27;20046;-82
2023/08/22 07:13:33;;;;;;;10.40;5.70;;;25.10;99.90;;;;;;5136151;27;20080;-80
2023/08/22 07:15:59;;;;;;;10.47;5.90;;;25.20;99.90;;;;;;5118774;27;20133;-81
2023/08/22 07:18:27;;;;;;;10.20;6.47;;;25.40;99.90;;;;;;5136212;27;20435;-83
2023/08/22 07:20:53;;;;;;;12.00;5.97;;;25.40;99.90;;;;;;5154144;27;20054;-83
2023/08/22 07:23:20;;;;;;;10.20;5.80;;;25.30;99.90;;;;;;5154677;27;20042;-83
2023/08/22 07:25:50;;;;;;;8.33;5.97;;;24.90;99.90;;;;;;5135789;27;20075;-83
2023/08/22 07:28:16;;;;;;;8.17;5.43;;;24.60;99.90;;;;;;5154529;27;20047;-83
2023/08/22 07:30:45;;;;;;;9.07;5.50;;;24.30;99.90;;;;;;5118878;27;20047;-81
2023/08/22 07:33:12;;;;;;;13.57;6.10;;;24.20;99.90;;;;;;5135663;27;20493;-81
2023/08/22 07:35:37;;;;;;;10.27;5.80;;;24.10;99.90;;;;;;5119802;27;20042;-81
2023/08/22 07:38:04;;;;;;;11.00;6.10;;;24.10;99.90;;;;;;5157647;27;20371;-79
2023/08/22 07:40:30;;;;;;;10.37;5.87;;;24.00;99.90;;;;;;5122453;27;20061;-80
2023/08/22 07:42:56;;;;;;;14.77;6.27;;;23.90;99.90;;;;;;5139035;27;20125;-80
2023/08/22 07:45:22;;;;;;;9.67;5.47;;;24.10;99.90;;;;;;5139413;27;20089;-80
2023/08/22 07:47:50;;;;;;;9.17;5.53;;;24.40;99.90;;;;;;5139039;27;20079;-81
2023/08/22 07:50:15;;;;;;;9.97;5.77;;;24.80;99.90;;;;;;5121946;27;20039;-80
2023/08/22 07:52:41;;;;;;;9.47;5.40;;;25.40;99.90;;;;;;5157834;27;20118;-79
2023/08/22 07:55:07;;;;;;;12.17;6.23;;;25.90;99.90;;;;;;5138757;27;20052;-83
2023/08/22 07:57:33;;;;;;;8.73;5.47;;;26.20;99.90;;;;;;5139094;27;20100;-81
2023/08/22 07:59:59;;;;;;;7.73;4.90;;;26.40;99.90;;;;;;5104872;27;20046;-83
2023/08/22 08:02:24;;;;;;;8.00;4.90;;;26.50;99.90;;;;;;5122137;27;20047;-82
2023/08/22 08:04:50;;;;;;;8.80;4.97;;;26.50;99.90;;;;;;5121854;27;20046;-83
2023/08/22 08:07:16;;;;;;;7.50;4.63;;;26.30;99.90;;;;;;5158141;27;20050;-81
2023/08/22 08:09:41;;;;;;;6.50;4.53;;;26.20;99.90;;;;;;5122017;27;20406;-83
2023/08/22 08:12:08;;;;;;;9.87;5.77;;;26.10;99.90;;;;;;5138921;27;20050;-83
2023/08/22 08:14:33;;;;;;;7.73;4.70;;;25.90;99.90;;;;;;5105261;27;20486;-83
2023/08/22 08:16:59;;;;;;;8.40;5.33;;;25.70;99.90;;;;;;5157115;27;20046;-82
2023/08/22 08:19:25;;;;;;;8.47;4.93;;;25.60;99.90;;;;;;5157559;27;20045;-83
2023/08/22 08:21:50;;;;;;;7.83;4.77;;;25.50;99.90;;;;;;5138557;27;20385;-83
2023/08/22 08:24:16;;;;;;;7.63;4.47;;;25.50;99.90;;;;;;5139037;27;20491;-83
2023/08/22 08:26:42;;;;;;;6.80;4.77;;;25.60;99.90;;;;;;5138992;27;20130;-82
2023/08/22 08:29:08;;;;;;;8.47;4.73;;;25.70;99.90;;;;;;5156803;27;20524;-81
2023/08/22 08:31:33;;;;;;;7.17;4.67;;;25.80;99.90;;;;;;5139048;27;20512;-71
2023/08/22 08:33:59;;;;;;;8.90;4.47;;;25.90;99.90;;;;;;5156858;27;20046;-84
2023/08/22 08:36:25;;;;;;;9.93;4.60;;;26.00;99.90;;;;;;5157167;27;20131;-83
2023/08/22 08:38:50;;;;;;;8.37;3.93;;;25.90;99.90;;;;;;5138445;27;20043;-82
2023/08/22 08:41:19;;;;;;;8.60;4.70;;;25.70;99.90;;;;;;5156660;27;20046;-83
2023/08/22 08:43:46;;;;;;;7.37;4.40;;;25.70;99.90;;;;;;5156778;27;20042;-85
2023/08/22 08:46:13;;;;;;;7.10;4.40;;;25.70;99.90;;;;;;5156182;27;20904;-81
2023/08/22 08:48:40;;;;;;;9.37;4.80;;;25.70;99.90;;;;;;5156673;27;20081;-80
2023/08/22 08:51:07;;;;;;;7.37;4.50;;;25.60;99.90;;;;;;5156504;27;20047;-81
2023/08/22 08:53:37;;;;;;;7.27;4.10;;;25.50;99.90;;;;;;5138219;27;20470;-81
2023/08/22 08:56:06;;;;;;;8.17;4.17;;;25.40;99.90;;;;;;5137681;27;20500;-84
2023/08/22 08:58:32;;;;;;;7.50;4.20;;;25.40;99.90;;;;;;5121645;27;20505;-81
2023/08/22 09:00:59;;;;;;;9.23;4.40;;;25.40;99.90;;;;;;5137668;27;20078;-82
2023/08/22 09:03:25;;;;;;;10.57;4.40;;;25.40;99.90;;;;;;5137825;27;20047;-81
2023/08/22 09:05:51;;;;;;;7.87;4.13;;;25.20;99.90;;;;;;5120666;27;20151;-80
2023/08/22 09:08:20;;;;;;;8.37;4.30;;;25.00;99.90;;;;;;5156090;27;20042;-82
2023/08/22 09:10:51;;;;;;;8.83;3.90;;;24.90;99.90;;;;;;5155961;27;20479;-80
2023/08/22 09:13:24;;;;;;;10.43;4.47;;;24.80;99.90;;;;;;5137623;27;20057;-71
2023/08/22 09:15:50;;;;;;;8.25;3.88;;;24.70;99.90;;;;;;5156295;27;20444;-79
2023/08/22 09:18:16;;;;;;;7.73;4.13;;;24.60;99.90;;;;;;5120362;27;20059;-79
2023/08/22 09:20:45;;;;;;;8.43;4.17;;;24.50;99.90;;;;;;5137729;27;20042;-80
2023/08/22 09:23:28;;;;;;;9.33;3.83;;;24.40;99.90;;;;;;5136856;27;20147;-79
2023/08/22 09:25:54;;;;;;;8.17;3.77;;;24.40;99.90;;;;;;5137317;27;20121;-81
2023/08/22 09:28:20;;;;;;;9.37;4.40;;;24.30;99.90;;;;;;5155598;27;20046;-81
2023/08/22 09:30:48;;;;;;;8.80;4.63;;;24.20;99.90;;;;;;5137527;27;20187;-81
2023/08/22 09:33:14;;;;;;;7.00;4.00;;;24.20;99.90;;;;;;5137131;27;20070;-83
2023/08/22 09:35:39;;;;;;;8.77;4.57;;;24.20;99.90;;;;;;5156010;27;20046;-78
2023/08/22 09:38:07;;;;;;;8.77;4.60;;;24.30;99.90;;;;;;5119556;27;20054;-82
2023/08/22 09:40:34;;;;;;;9.40;4.87;;;24.30;99.90;;;;;;5155777;27;20046;-85
2023/08/22 09:43:01;;;;;;;8.10;4.53;;;24.30;99.90;;;;;;5153469;27;20045;-85
2023/08/22 09:45:31;;;;;;;11.07;4.73;;;24.30;99.90;;;;;;5120769;27;20050;-84
2023/08/22 09:47:59;;;;;;;7.80;3.87;;;24.30;99.90;;;;;;5137546;27;20436;-84
2023/08/22 09:50:31;;;;;;;8.80;3.93;;;24.20;99.90;;;;;;5155691;27;20057;-85
2023/08/22 09:52:59;;;;;;;12.30;4.47;;;24.10;99.90;;;;;;5137819;27;20165;-86
2023/08/22 09:55:26;;;;;;;9.10;4.57;;;24.00;99.90;;;;;;5119951;27;20055;-83
2023/08/22 09:57:53;;;;;;;8.23;3.67;;;24.00;99.90;;;;;;5136988;27;20478;-84
2023/08/22 10:00:18;;;;;;;7.93;4.00;;;24.00;99.90;;;;;;5119839;27;20042;-84
2023/08/22 10:02:46;;;;;;;6.87;3.60;;;24.00;99.90;;;;;;5155351;27;20042;-84
2023/08/22 10:05:13;;;;;;;9.77;4.53;;;24.10;99.90;;;;;;5136774;27;20046;-85
2023/08/22 10:07:39;;;;;;;9.13;4.37;;;24.10;99.90;;;;;;5120074;27;20058;-84
2023/08/22 10:10:05;;;;;;;10.00;5.07;;;24.10;99.90;;;;;;5119909;27;20062;-84
2023/08/22 10:12:33;;;;;;;8.07;3.50;;;24.10;99.90;;;;;;5155552;27;20083;-84
2023/08/22 10:15:03;;;;;;;9.13;3.90;;;24.10;99.90;;;;;;5119892;27;20421;-84
2023/08/22 10:17:31;;;;;;;9.57;4.27;;;24.20;99.90;;;;;;5155280;27;20062;-84
2023/08/22 10:20:05;;;;;;;11.37;4.93;;;24.10;99.90;;;;;;5138338;27;20065;-85
2023/08/22 10:22:32;;;;;;;11.70;4.00;;;24.10;99.90;;;;;;5137749;27;20043;-85
2023/08/22 10:25:06;;;;;;;6.70;3.80;;;24.00;99.90;;;;;;5137044;27;20051;-84
2023/08/22 10:27:32;;;;;;;7.27;3.40;;;24.00;99.90;;;;;;5119746;27;20466;-84
2023/08/22 10:30:13;;;;;;;6.90;3.33;;;23.90;99.90;;;;;;5136774;27;20136;-84
2023/08/22 10:32:40;;;;;;;8.43;3.40;;;24.00;99.90;;;;;;5136749;27;20077;-83
2023/08/22 10:35:06;;;;;;;8.53;3.13;;;24.10;99.90;;;;;;5136525;27;20138;-83
2023/08/22 10:37:32;;;;;;;9.20;3.13;;;24.10;99.90;;;;;;5154904;27;20047;-83
2023/08/22 10:39:58;;;;;;;8.63;3.57;;;24.10;99.90;;;;;;5136561;27;20039;-82
2023/08/22 10:42:25;;;;;;;9.93;3.90;;;24.10;99.90;;;;;;5135799;27;20126;-83
2023/08/22 10:44:58;;;;;;;8.33;3.40;;;24.10;99.90;;;;;;5154755;27;20049;-83
2023/08/22 10:47:26;;;;;;;7.07;3.63;;;24.10;99.90;;;;;;5136200;27;20169;-82
2023/08/22 10:49:54;;;;;;;7.00;3.43;;;24.00;99.90;;;;;;5154462;27;20125;-80
2023/08/22 10:52:26;;;;;;;8.53;4.43;;;24.00;99.90;;;;;;5154632;27;20214;-83
2023/08/22 10:54:56;;;;;;;11.43;4.03;;;23.90;99.90;;;;;;5136528;27;20134;-82
2023/08/22 10:57:22;;;;;;;10.17;4.87;;;23.90;99.90;;;;;;5135996;27;20043;-81
2023/08/22 11:00:00;;;;;;;9.23;4.17;;;23.80;99.90;;;;;;5136315;27;20538;-78
2023/08/22 11:02:28;;;;;;;9.97;4.50;;;23.80;99.90;;;;;;5135412;27;20045;-81
2023/08/22 11:04:58;;;;;;;9.80;4.50;;;23.90;99.90;;;;;;5154594;27;20051;-83
2023/08/22 11:07:25;;;;;;;9.37;4.27;;;23.90;99.90;;;;;;5154399;27;20043;-82
2023/08/22 11:09:50;;;;;;;10.73;4.37;;;23.90;99.90;;;;;;5154837;27;20055;-82
2023/08/22 11:12:18;;;;;;;13.50;5.30;;;24.00;99.90;;;;;;5123210;27;20138;-81
2023/08/22 11:14:48;;;;;;;9.90;4.73;;;24.10;99.90;;;;;;5158633;27;20051;-84
2023/08/22 11:17:18;;;;;;;7.97;3.63;;;24.20;99.90;;;;;;5158337;27;20039;-83
2023/08/22 11:19:44;;;;;;;8.90;4.17;;;24.30;99.90;;;;;;5140286;27;20038;-81
2023/08/22 11:22:11;;;;;;;9.53;3.80;;;24.40;99.90;;;;;;5139564;27;20087;-84
2023/08/22 11:24:41;;;;;;;6.47;3.77;;;24.30;99.90;;;;;;5158315;27;20046;-80
2023/08/22 11:27:06;;;;;;;7.70;4.20;;;24.30;99.90;;;;;;5158426;27;20501;-83
2023/08/22 11:29:52;;;;;;;10.17;5.37;;;24.20;99.90;;;;;;5139294;27;20114;-82
2023/08/22 11:32:25;;;;;;;8.50;4.77;;;24.10;99.90;;;;;;5157918;27;20490;-80
2023/08/22 11:35:00;;;;;;;10.23;5.00;;;24.10;99.90;;;;;;5139565;27;20050;-82
2023/08/22 11:37:28;;;;;;;9.17;5.17;;;24.00;99.90;;;;;;5139704;27;20050;-81
2023/08/22 11:39:58;;;;;;;10.57;5.40;;;24.10;99.90;;;;;;5158480;27;20038;-82
2023/08/22 11:42:24;;;;;;;10.03;4.83;;;24.10;99.90;;;;;;5139712;27;20047;-81
2023/08/22 11:45:10;;;;;;;12.43;5.13;;;24.10;99.90;;;;;;5158260;27;20043;-80
2023/08/22 11:47:53;;;;;;;11.30;4.93;;;24.10;99.90;;;;;;5139399;27;20058;-80
2023/08/22 11:50:27;;;;;;;9.00;5.03;;;24.10;99.90;;;;;;5139504;27;20047;-81
2023/08/22 11:52:57;;;;;;;7.40;4.47;;;24.20;99.90;;;;;;5158527;27;20050;-81
2023/08/22 11:55:25;;;;;;;9.53;4.80;;;24.30;99.90;;;;;;5139905;27;20494;-79
2023/08/22 11:57:53;;;;;;;11.40;5.67;;;24.40;99.90;;;;;;5140560;27;20099;-80
2023/08/22 12:00:19;;;;;;;8.70;4.33;;;24.50;99.90;;;;;;5140234;27;20431;-78
2023/08/22 12:02:52;;;;;;;10.50;5.37;;;24.50;99.90;;;;;;5157835;27;20381;-78
2023/08/22 12:05:36;;;;;;;12.68;5.00;;;24.60;99.90;;;;;;5157641;27;20067;-78
2023/08/22 12:08:10;;;;;;;9.30;4.87;;;24.60;99.90;;;;;;5160211;27;20043;-79
2023/08/22 12:10:43;;;;;;;14.13;5.20;;;24.60;99.90;;;;;;5140039;27;20133;-78
2023/08/22 12:13:10;;;;;;;10.73;4.80;;;24.50;99.90;;;;;;5158275;27;20511;-78
2023/08/22 12:15:37;;;;;;;11.30;5.17;;;24.50;99.90;;;;;;5158013;27;20047;-78
2023/08/22 12:18:04;;;;;;;9.50;4.30;;;24.40;99.90;;;;;;5157828;27;20126;-78
2023/08/22 12:20:30;;;;;;;9.47;4.87;;;24.30;99.90;;;;;;5157592;27;20469;-79
2023/08/22 12:22:56;;;;;;;9.77;4.93;;;24.30;99.90;;;;;;5157410;27;20039;-79
2023/08/22 12:25:22;;;;;;;8.20;4.80;;;24.20;99.90;;;;;;5138176;27;20058;-79
2023/08/22 12:27:48;;;;;;;9.07;4.50;;;24.10;99.90;;;;;;5138883;27;20567;-79
2023/08/22 12:30:14;;;;;;;11.93;5.53;;;24.10;99.90;;;;;;5138853;27;20108;-79
2023/08/22 12:32:44;;;;;;;7.43;3.90;;;24.00;99.90;;;;;;5156801;27;20487;-78
2023/08/22 12:35:10;;;;;;;9.53;4.17;;;24.10;99.90;;;;;;5138584;27;20490;-79
2023/08/22 12:37:36;;;;;;;9.50;4.60;;;24.10;99.90;;;;;;5138409;27;20049;-79
2023/08/22 12:40:04;;;;;;;11.43;3.90;;;24.10;99.90;;;;;;5138682;27;20046;-80
2023/08/22 12:42:30;;;;;;;10.83;3.73;;;24.10;99.90;;;;;;5156114;27;20382;-80